createdAt,value
2023-03-06T00:00:19.805Z,33.73
2023-03-06T00:02:47.739Z,34.52
2023-03-06T00:05:15.911Z,38.30
2023-03-06T00:07:43.858Z,37.89
2023-03-06T00:10:15.669Z,37.87
2023-03-06T00:12:44.756Z,38.01
2023-03-06T00:15:13.604Z,38.77
2023-03-06T00:17:41.266Z,38.09
2023-03-06T00:20:11.050Z,38.16
2023-03-06T00:22:39.467Z,33.79
2023-03-06T00:25:08.951Z,35.39
2023-03-06T00:27:36.500Z,34.51
2023-03-06T00:30:07.023Z,36.71
2023-03-06T00:32:34.647Z,40.48
2023-03-06T00:35:02.261Z,39.58
2023-03-06T00:37:29.849Z,36.92
2023-03-06T00:39:57.387Z,37.36
2023-03-06T00:42:25.095Z,39.23
2023-03-06T00:44:52.793Z,41.36
2023-03-06T00:47:21.842Z,42.33
2023-03-06T00:49:50.274Z,39.19
2023-03-06T00:52:17.864Z,41.00
2023-03-06T00:54:45.407Z,43.82
2023-03-06T00:57:13.062Z,45.01
2023-03-06T00:59:40.647Z,40.56
2023-03-06T01:02:08.267Z,41.83
2023-03-06T01:04:37.272Z,42.60
2023-03-06T01:07:04.995Z,44.38
2023-03-06T01:09:32.685Z,47.27
2023-03-06T01:12:00.517Z,45.86
2023-03-06T01:14:28.126Z,48.16
2023-03-06T01:16:55.759Z,44.98
2023-03-06T01:19:23.465Z,41.62
2023-03-06T01:21:52.441Z,43.27
2023-03-06T01:24:19.997Z,44.06
2023-03-06T01:26:47.539Z,42.62
2023-03-06T01:29:15.127Z,43.62
2023-03-06T01:31:42.890Z,43.73
2023-03-06T01:34:10.572Z,47.17
2023-03-06T01:36:38.162Z,80.57
2023-03-06T01:39:07.175Z,138.36
2023-03-06T01:41:35.114Z,58.98
2023-03-06T01:44:03.101Z,39.77
2023-03-06T01:46:35.766Z,36.67
2023-03-06T01:49:08.794Z,40.84
2023-03-06T01:51:40.743Z,39.82
2023-03-06T01:54:14.558Z,39.45
2023-03-06T01:56:47.239Z,40.57
2023-03-06T01:59:16.228Z,38.24
2023-03-06T02:01:44.952Z,40.59
2023-03-06T02:04:13.813Z,45.74
2023-03-06T02:06:41.943Z,39.74
2023-03-06T02:09:12.798Z,39.84
2023-03-06T02:11:40.875Z,42.18
2023-03-06T02:14:08.583Z,40.36
2023-03-06T02:16:36.223Z,42.49
2023-03-06T02:19:16.168Z,38.25
2023-03-06T02:21:44.059Z,40.73
2023-03-06T02:24:30.333Z,42.06
2023-03-06T02:27:00.596Z,41.75
2023-03-06T02:29:30.065Z,40.38
2023-03-06T02:31:57.896Z,42.05
2023-03-06T02:34:54.427Z,43.10
2023-03-06T02:37:24.000Z,41.71
2023-03-06T02:39:59.727Z,44.35
2023-03-06T02:42:29.414Z,37.36
2023-03-06T02:45:02.140Z,39.51
2023-03-06T02:47:29.762Z,40.41
2023-03-06T02:49:57.406Z,36.93
2023-03-06T02:52:25.063Z,40.15
2023-03-06T02:54:52.685Z,36.31
2023-03-06T02:57:20.246Z,40.09
2023-03-06T02:59:49.146Z,34.63
2023-03-06T03:02:16.793Z,36.44
2023-03-06T03:04:44.452Z,33.64
2023-03-06T03:07:12.080Z,41.48
2023-03-06T03:09:39.711Z,41.07
2023-03-06T03:12:08.324Z,39.47
2023-03-06T03:14:36.147Z,36.89
2023-03-06T03:17:05.390Z,39.54
2023-03-06T03:19:33.026Z,38.05
2023-03-06T03:22:00.855Z,38.96
2023-03-06T03:24:28.534Z,38.32
2023-03-06T03:26:56.272Z,35.41
2023-03-06T03:29:24.749Z,39.42
2023-03-06T03:31:52.331Z,41.42
2023-03-06T03:34:21.349Z,40.20
2023-03-06T03:36:49.263Z,37.50
2023-03-06T03:39:16.957Z,39.64
2023-03-06T03:41:44.628Z,41.41
2023-03-06T03:44:12.568Z,37.93
2023-03-06T03:46:40.320Z,36.72
2023-03-06T03:49:08.053Z,38.04
2023-03-06T03:51:37.073Z,35.82
2023-03-06T03:54:06.159Z,34.96
2023-03-06T03:56:35.175Z,35.32
2023-03-06T03:59:03.069Z,40.58
2023-03-06T04:01:30.708Z,40.63
2023-03-06T04:03:59.032Z,37.60
2023-03-06T04:06:26.821Z,38.55
2023-03-06T04:08:56.247Z,38.91
2023-03-06T04:11:23.920Z,39.40
2023-03-06T04:13:51.668Z,38.46
2023-03-06T04:16:19.391Z,39.46
2023-03-06T04:18:47.006Z,44.46
2023-03-06T04:21:14.822Z,38.53
2023-03-06T04:23:42.457Z,41.18
2023-03-06T04:26:11.457Z,34.22
2023-03-06T04:28:39.128Z,38.32
2023-03-06T04:31:06.782Z,34.85
2023-03-06T04:33:34.339Z,40.42
2023-03-06T04:36:01.965Z,41.11
2023-03-06T04:38:29.760Z,38.10
2023-03-06T04:40:57.458Z,36.61
2023-03-06T04:43:26.443Z,42.89
2023-03-06T04:45:54.046Z,39.62
2023-03-06T04:48:21.703Z,42.39
2023-03-06T04:50:49.350Z,47.00
2023-03-06T04:53:17.004Z,39.64
2023-03-06T04:55:44.636Z,38.06
2023-03-06T04:58:13.963Z,42.97
2023-03-06T05:00:43.026Z,38.67
2023-03-06T05:03:12.859Z,38.32
2023-03-06T05:05:40.564Z,40.69
2023-03-06T05:08:10.306Z,44.92
2023-03-06T05:10:37.959Z,64.34
2023-03-06T05:13:05.863Z,77.41
2023-03-06T05:15:33.445Z,36.43
2023-03-06T05:18:03.804Z,44.05
2023-03-06T05:20:31.431Z,39.44
2023-03-06T05:22:59.155Z,39.60
2023-03-06T05:25:26.876Z,37.27
2023-03-06T05:27:54.547Z,40.24
2023-03-06T05:30:22.373Z,43.20
2023-03-06T05:32:50.196Z,41.76
2023-03-06T05:35:21.572Z,39.64
2023-03-06T05:37:50.286Z,40.33
2023-03-06T05:40:18.887Z,43.87
2023-03-06T05:42:46.438Z,45.02
2023-03-06T05:45:14.058Z,46.65
2023-03-06T05:47:41.820Z,48.89
2023-03-06T05:50:11.214Z,46.10
2023-03-06T05:52:40.172Z,44.69
2023-03-06T05:55:12.047Z,45.66
2023-03-06T05:57:39.780Z,41.53
2023-03-06T06:00:10.379Z,37.03
2023-03-06T06:02:38.295Z,36.18
2023-03-06T06:05:07.069Z,39.08
2023-03-06T06:07:34.723Z,38.87
2023-03-06T06:10:04.986Z,37.45
2023-03-06T06:12:33.153Z,41.67
2023-03-06T06:15:00.933Z,42.47
2023-03-06T06:17:28.582Z,41.91
2023-03-06T06:19:56.278Z,41.69
2023-03-06T06:22:25.337Z,36.93
2023-03-06T06:24:53.072Z,37.40
2023-03-06T06:27:21.962Z,76.80
2023-03-06T06:29:50.876Z,39.55
2023-03-06T06:32:18.611Z,40.07
2023-03-06T06:34:46.219Z,34.37
2023-03-06T06:37:13.918Z,39.50
2023-03-06T06:39:41.537Z,41.01
2023-03-06T06:42:28.895Z,34.51
2023-03-06T06:44:58.523Z,32.37
2023-03-06T06:47:26.434Z,32.26
2023-03-06T06:49:55.949Z,34.86
2023-03-06T06:52:24.517Z,36.74
2023-03-06T06:54:52.471Z,35.18
2023-03-06T06:57:20.104Z,36.86
2023-03-06T06:59:47.663Z,36.09
2023-03-06T07:02:16.828Z,39.57
2023-03-06T07:05:00.696Z,36.65
2023-03-06T07:07:30.720Z,37.27
2023-03-06T07:09:58.384Z,40.42
2023-03-06T07:12:26.016Z,40.73
2023-03-06T07:14:53.807Z,69.08
2023-03-06T07:17:22.746Z,41.05
2023-03-06T07:19:50.603Z,44.13
2023-03-06T07:22:18.228Z,53.43
2023-03-06T07:24:45.883Z,40.15
2023-03-06T07:27:13.551Z,40.91
2023-03-06T07:29:43.353Z,43.99
2023-03-06T07:32:11.672Z,43.48
2023-03-06T07:34:40.670Z,43.06
2023-03-06T07:37:08.643Z,42.67
2023-03-06T07:39:36.516Z,45.21
2023-03-06T07:42:05.019Z,44.33
2023-03-06T07:44:36.456Z,43.34
2023-03-06T07:47:04.234Z,45.77
2023-03-06T07:49:31.906Z,41.38
2023-03-06T07:52:01.496Z,40.89
2023-03-06T07:54:29.108Z,48.03
2023-03-06T07:56:56.957Z,33.75
2023-03-06T07:59:24.870Z,46.54
2023-03-06T08:01:54.362Z,39.93
2023-03-06T08:04:22.093Z,41.16
2023-03-06T08:06:49.650Z,50.72
2023-03-06T08:09:18.695Z,37.70
2023-03-06T08:11:46.396Z,42.36
2023-03-06T08:14:14.171Z,45.61
2023-03-06T08:16:42.062Z,35.68
2023-03-06T08:19:09.917Z,37.19
2023-03-06T08:21:37.584Z,37.55
2023-03-06T08:24:06.777Z,35.42
2023-03-06T08:26:36.551Z,35.03
2023-03-06T08:29:04.478Z,37.60
2023-03-06T08:31:35.308Z,42.22
2023-03-06T08:34:06.056Z,41.27
2023-03-06T08:36:34.297Z,37.29
2023-03-06T08:39:02.952Z,39.46
2023-03-06T08:41:31.270Z,46.68
2023-03-06T08:44:00.306Z,38.79
2023-03-06T08:46:30.041Z,40.24
2023-03-06T08:48:58.680Z,48.15
2023-03-06T08:51:27.020Z,37.65
2023-03-06T08:53:55.852Z,35.53
2023-03-06T08:56:26.532Z,35.57
2023-03-06T08:58:56.117Z,34.94
2023-03-06T09:01:27.160Z,34.11
2023-03-06T09:03:56.927Z,32.28
2023-03-06T09:06:27.158Z,33.03
2023-03-06T09:08:55.710Z,31.85
2023-03-06T09:11:26.737Z,29.77
2023-03-06T09:13:54.996Z,31.10
2023-03-06T09:16:25.046Z,29.59
2023-03-06T09:18:52.913Z,30.65
2023-03-06T09:21:21.373Z,27.29
2023-03-06T09:23:49.762Z,30.95
2023-03-06T09:26:17.459Z,27.02
2023-03-06T09:28:45.374Z,26.83
2023-03-06T09:34:17.347Z,20.94
2023-03-06T09:36:56.771Z,20.63
2023-03-06T09:39:26.066Z,20.93
2023-03-06T09:41:55.065Z,22.11
2023-03-06T09:44:25.961Z,21.40
2023-03-06T09:47:18.911Z,20.81
2023-03-06T09:50:06.005Z,21.73
2023-03-06T09:58:05.969Z,23.76
2023-03-06T10:00:40.041Z,21.58
2023-03-06T10:03:22.126Z,21.65
2023-03-06T10:05:54.961Z,21.20
2023-03-06T10:08:30.187Z,20.49
2023-03-06T10:11:00.934Z,22.38
2023-03-06T10:13:38.418Z,21.71
2023-03-06T10:16:22.157Z,20.43
2023-03-06T10:18:50.716Z,21.36
2023-03-06T10:21:42.267Z,19.58
2023-03-06T10:24:23.843Z,20.30
2023-03-06T10:27:00.019Z,20.91
2023-03-06T10:30:01.272Z,22.20
2023-03-06T10:32:46.311Z,21.18
2023-03-06T10:35:21.337Z,20.39
2023-03-06T10:37:48.969Z,20.36
2023-03-06T10:40:20.017Z,19.06
2023-03-06T10:42:47.796Z,20.42
2023-03-06T10:45:17.831Z,19.01
2023-03-06T10:47:45.462Z,21.01
2023-03-06T10:50:25.948Z,19.51
2023-03-06T10:53:02.345Z,19.25
2023-03-06T10:55:31.920Z,20.91
2023-03-06T10:58:18.314Z,19.11
2023-03-06T11:00:47.660Z,19.18
2023-03-06T11:03:21.943Z,19.97
2023-03-06T11:06:01.200Z,20.77
2023-03-06T11:08:30.497Z,19.93
2023-03-06T11:11:00.922Z,20.99
2023-03-06T11:13:31.612Z,18.99
2023-03-06T11:16:07.291Z,19.10
2023-03-06T11:18:37.759Z,19.67
2023-03-06T11:21:25.365Z,20.69
2023-03-06T11:23:57.634Z,20.15
2023-03-06T11:26:37.070Z,19.42
2023-03-06T11:29:50.206Z,18.78
2023-03-06T11:32:24.561Z,19.71
2023-03-06T11:34:59.642Z,18.72
2023-03-06T11:37:43.009Z,19.06
2023-03-06T11:40:20.527Z,19.26
2023-03-06T11:42:57.275Z,19.50
2023-03-06T11:45:30.097Z,19.05
2023-03-06T11:48:20.584Z,19.44
2023-03-06T11:50:50.499Z,19.31
2023-03-06T11:53:22.384Z,18.87
2023-03-06T11:56:02.211Z,18.83
2023-03-06T11:58:56.102Z,20.34
2023-03-06T12:01:30.509Z,19.62
2023-03-06T12:04:25.707Z,33.37
2023-03-06T12:07:07.547Z,20.43
2023-03-06T12:09:46.422Z,20.34
2023-03-06T12:12:31.972Z,20.55
2023-03-06T12:15:18.220Z,20.07
2023-03-06T12:18:11.043Z,20.65
2023-03-06T12:20:58.635Z,20.14
2023-03-06T12:23:48.433Z,20.95
2023-03-06T12:26:33.581Z,20.89
2023-03-06T12:29:19.725Z,21.58
2023-03-06T12:32:05.770Z,20.11
2023-03-06T12:34:49.363Z,20.20
2023-03-06T12:37:27.040Z,19.90
2023-03-06T12:40:18.577Z,20.27
2023-03-06T12:43:09.083Z,20.92
2023-03-06T12:45:38.035Z,19.70
2023-03-06T12:48:14.701Z,67.02
2023-03-06T12:50:43.159Z,19.82
2023-03-06T12:53:26.057Z,19.71
2023-03-06T12:55:57.177Z,18.70
2023-03-06T12:58:47.069Z,18.72
2023-03-06T13:01:48.302Z,19.84
2023-03-06T13:04:35.059Z,19.83
2023-03-06T13:07:22.089Z,24.08
2023-03-06T13:10:13.308Z,20.40
2023-03-06T13:12:54.386Z,21.13
2023-03-06T13:15:38.094Z,20.36
2023-03-06T13:18:56.264Z,19.65
2023-03-06T13:21:43.460Z,20.98
2023-03-06T13:24:17.229Z,20.86
2023-03-06T13:26:53.860Z,20.50
2023-03-06T13:30:01.021Z,20.49
2023-03-06T13:32:32.506Z,19.51
2023-03-06T13:35:00.670Z,21.01
2023-03-06T13:37:47.233Z,20.39
2023-03-06T13:40:32.485Z,21.27
2023-03-06T13:43:18.783Z,20.14
2023-03-06T13:45:48.359Z,20.25
2023-03-06T13:48:43.537Z,18.56
2023-03-06T13:51:24.436Z,46.34
2023-03-06T13:54:20.120Z,17.62
2023-03-06T13:57:23.321Z,18.81
2023-03-06T14:00:34.919Z,18.69
2023-03-06T14:03:41.456Z,18.99
2023-03-06T14:06:42.550Z,18.83
2023-03-06T14:09:24.094Z,20.33
2023-03-06T14:11:56.623Z,17.04
2023-03-06T14:14:34.336Z,17.77
2023-03-06T14:17:05.300Z,18.12
2023-03-06T14:19:37.965Z,18.52
2023-03-06T14:22:13.234Z,30.39
2023-03-06T14:24:51.815Z,19.50
2023-03-06T14:27:19.994Z,19.10
2023-03-06T14:29:47.635Z,20.79
2023-03-06T14:32:22.259Z,19.08
2023-03-06T14:34:50.368Z,20.29
2023-03-06T14:37:23.450Z,20.45
2023-03-06T14:39:52.233Z,20.40
2023-03-06T14:42:21.993Z,20.27
2023-03-06T14:45:00.988Z,23.59
2023-03-06T14:47:32.009Z,23.06
2023-03-06T14:50:20.183Z,21.01
2023-03-06T14:52:48.313Z,19.43
2023-03-06T14:55:19.361Z,19.51
2023-03-06T14:57:51.930Z,19.44
2023-03-06T15:00:24.336Z,20.25
2023-03-06T15:02:55.688Z,19.08
2023-03-06T15:05:28.259Z,16.67
2023-03-06T15:08:01.962Z,37.17
2023-03-06T15:10:31.721Z,16.63
2023-03-06T15:13:09.376Z,14.98
2023-03-06T15:15:37.024Z,15.85
2023-03-06T15:18:27.465Z,16.01
2023-03-06T15:21:07.127Z,20.12
2023-03-06T15:23:37.386Z,15.29
2023-03-06T15:26:23.461Z,17.71
2023-03-06T15:29:09.054Z,17.60
2023-03-06T15:31:39.274Z,15.75
2023-03-06T15:34:20.675Z,15.85
2023-03-06T15:36:50.244Z,36.43
2023-03-06T15:39:30.726Z,46.18
2023-03-06T15:41:59.912Z,52.05
2023-03-06T15:44:31.517Z,15.14
2023-03-06T15:47:08.403Z,15.87
2023-03-06T15:49:39.267Z,13.09
2023-03-06T15:52:07.783Z,62.41
2023-03-06T15:54:36.399Z,12.27
2023-03-06T15:57:07.171Z,12.70
2023-03-06T15:59:43.115Z,12.30
2023-03-06T16:02:15.497Z,11.76
2023-03-06T16:04:45.571Z,10.01
2023-03-06T16:07:13.670Z,9.28
2023-03-06T16:09:42.411Z,10.47
2023-03-06T16:12:17.619Z,17.74
2023-03-06T16:14:45.843Z,13.20
2023-03-06T16:17:14.533Z,17.31
2023-03-06T16:19:42.166Z,15.55
2023-03-06T16:22:11.899Z,14.26
2023-03-06T16:24:39.473Z,11.31
2023-03-06T16:27:07.184Z,11.35
2023-03-06T16:29:35.159Z,11.32
2023-03-06T16:32:03.345Z,10.70
2023-03-06T16:34:30.948Z,10.44
2023-03-06T16:36:58.580Z,11.75
2023-03-06T16:39:27.575Z,12.29
2023-03-06T16:41:55.505Z,9.89
2023-03-06T16:44:23.050Z,10.12
2023-03-06T16:46:50.736Z,9.91
2023-03-06T16:49:20.575Z,9.77
2023-03-06T16:51:48.716Z,9.80
2023-03-06T16:54:16.501Z,10.28
2023-03-06T16:56:45.940Z,13.65
2023-03-06T16:59:13.635Z,15.41
2023-03-06T17:01:42.011Z,15.20
2023-03-06T17:04:09.694Z,13.51
2023-03-06T17:06:38.318Z,11.13
2023-03-06T17:09:05.943Z,9.14
2023-03-06T17:11:35.656Z,6.00
2023-03-06T17:14:04.967Z,6.20
2023-03-06T17:16:32.579Z,6.31
2023-03-06T17:19:00.494Z,6.01
2023-03-06T17:21:28.537Z,5.79
2023-03-06T17:23:56.748Z,15.84
2023-03-06T17:26:25.635Z,6.59
2023-03-06T17:29:06.919Z,6.74
2023-03-06T17:31:44.214Z,6.40
2023-03-06T17:34:23.603Z,6.67
2023-03-06T17:37:09.337Z,6.76
2023-03-06T17:39:39.162Z,6.44
2023-03-06T17:42:07.346Z,6.91
2023-03-06T17:44:38.128Z,6.79
2023-03-06T17:47:06.079Z,6.86
2023-03-06T17:49:33.679Z,6.59
2023-03-06T17:52:01.299Z,6.26
2023-03-06T17:54:31.228Z,5.71
2023-03-06T17:57:00.269Z,6.20
2023-03-06T17:59:28.035Z,6.10
2023-03-06T18:01:57.666Z,6.78
2023-03-06T18:04:25.898Z,6.94
2023-03-06T18:06:53.649Z,6.50
2023-03-06T18:09:21.240Z,6.24
2023-03-06T18:11:48.839Z,6.37
2023-03-06T18:14:16.502Z,6.83
2023-03-06T18:16:44.203Z,7.53
2023-03-06T18:19:13.224Z,7.13
2023-03-06T18:21:40.815Z,7.76
2023-03-06T18:24:09.877Z,8.65
2023-03-06T18:26:37.428Z,6.28
2023-03-06T18:29:05.052Z,6.88
2023-03-06T18:31:35.078Z,6.47
2023-03-06T18:34:05.044Z,6.44
2023-03-06T18:36:34.788Z,7.50
2023-03-06T18:39:03.744Z,7.03
2023-03-06T18:41:31.771Z,7.63
2023-03-06T18:44:01.252Z,6.76
2023-03-06T18:46:31.204Z,7.22
2023-03-06T18:48:59.028Z,7.53
2023-03-06T18:51:27.526Z,6.28
2023-03-06T18:53:58.224Z,6.37
2023-03-06T18:56:26.207Z,5.92
2023-03-06T18:58:53.920Z,6.43
2023-03-06T19:01:21.849Z,6.26
2023-03-06T19:03:49.729Z,6.64
2023-03-06T19:06:18.152Z,6.90
2023-03-06T19:08:45.706Z,6.82
2023-03-06T19:11:16.887Z,6.32
2023-03-06T19:13:45.085Z,6.37
2023-03-06T19:16:17.953Z,7.13
2023-03-06T19:18:45.611Z,6.71
2023-03-06T19:21:15.926Z,6.25
2023-03-06T19:23:43.453Z,6.64
2023-03-06T19:26:12.335Z,7.13
2023-03-06T19:28:42.478Z,6.64
2023-03-06T19:31:11.977Z,9.36
2023-03-06T19:33:40.887Z,10.88
2023-03-06T19:36:12.043Z,10.48
2023-03-06T19:38:40.918Z,10.88
2023-03-06T19:41:11.900Z,10.65
2023-03-06T19:43:41.980Z,11.55
2023-03-06T19:46:12.282Z,11.35
2023-03-06T19:48:40.534Z,10.74
2023-03-06T19:51:08.951Z,10.86
2023-03-06T19:53:36.607Z,10.57
2023-03-06T19:56:05.601Z,11.12
2023-03-06T19:58:33.499Z,10.98
2023-03-06T20:01:08.213Z,12.11
2023-03-06T20:03:36.465Z,11.02
2023-03-06T20:06:04.646Z,11.76
2023-03-06T20:08:32.637Z,11.80
2023-03-06T20:11:00.217Z,10.58
2023-03-06T20:13:27.871Z,10.13
2023-03-06T20:15:56.083Z,11.12
2023-03-06T20:18:25.071Z,11.47
2023-03-06T20:21:00.322Z,10.69
2023-03-06T20:23:28.604Z,11.66
2023-03-06T20:25:56.522Z,9.93
2023-03-06T20:28:24.037Z,10.34
2023-03-06T20:30:51.744Z,10.85
2023-03-06T20:33:19.728Z,10.85
2023-03-06T20:35:48.689Z,10.37
2023-03-06T20:38:16.394Z,10.77
2023-03-06T20:40:44.135Z,10.90
2023-03-06T20:43:11.802Z,11.44
2023-03-06T20:45:39.330Z,11.65
2023-03-06T20:48:07.003Z,12.21
2023-03-06T20:50:34.571Z,12.54
2023-03-06T20:53:03.832Z,11.52
2023-03-06T20:55:31.512Z,11.66
2023-03-06T20:57:59.185Z,13.08
2023-03-06T21:00:26.849Z,11.96
2023-03-06T21:02:54.488Z,12.91
2023-03-06T21:05:22.233Z,12.59
2023-03-06T21:07:51.827Z,13.31
2023-03-06T21:10:20.885Z,13.21
2023-03-06T21:12:48.492Z,13.06
2023-03-06T21:15:16.284Z,12.77
2023-03-06T21:17:43.871Z,12.52
2023-03-06T21:20:11.873Z,13.15
2023-03-06T21:22:39.563Z,13.49
2023-03-06T21:25:07.572Z,13.65
2023-03-06T21:27:36.455Z,12.86
2023-03-06T21:30:05.310Z,13.77
2023-03-06T21:32:33.455Z,14.56
2023-03-06T21:35:01.084Z,14.30
2023-03-06T21:37:28.716Z,14.01
2023-03-06T21:39:59.021Z,14.94
2023-03-06T21:42:27.020Z,12.93
2023-03-06T21:44:55.937Z,13.09
2023-03-06T21:47:23.547Z,14.92
2023-03-06T21:49:51.107Z,13.98
2023-03-06T21:52:18.631Z,11.91
2023-03-06T21:54:48.622Z,12.02
2023-03-06T21:57:16.152Z,13.42
2023-03-06T21:59:43.761Z,12.19
2023-03-06T22:02:12.706Z,12.68
2023-03-06T22:04:40.263Z,11.30
2023-03-06T22:07:07.946Z,11.30
2023-03-06T22:09:35.898Z,11.76
2023-03-06T22:12:04.163Z,12.28
2023-03-06T22:14:31.829Z,12.37
2023-03-06T22:16:59.445Z,13.17
2023-03-06T22:19:28.460Z,13.22
2023-03-06T22:21:56.104Z,13.91
2023-03-06T22:24:23.736Z,13.60
2023-03-06T22:26:51.277Z,12.75
2023-03-06T22:29:18.870Z,12.65
2023-03-06T22:31:46.473Z,11.75
2023-03-06T22:34:14.000Z,12.56
2023-03-06T22:36:42.946Z,13.01
2023-03-06T22:39:12.989Z,14.35
2023-03-06T22:41:41.471Z,14.42
2023-03-06T22:44:15.896Z,12.69
2023-03-06T22:46:43.939Z,11.65
2023-03-06T22:49:13.069Z,12.57
2023-03-06T22:51:40.876Z,12.96
2023-03-06T22:54:10.984Z,12.05
2023-03-06T22:56:38.674Z,12.77
2023-03-06T22:59:06.264Z,12.88
2023-03-06T23:01:34.711Z,12.19
2023-03-06T23:04:04.411Z,12.52
2023-03-06T23:06:36.410Z,13.27
2023-03-06T23:09:06.475Z,13.18
2023-03-06T23:11:35.479Z,13.95
2023-03-06T23:14:03.206Z,12.55
2023-03-06T23:16:31.324Z,11.98
2023-03-06T23:18:58.998Z,12.74
2023-03-06T23:21:26.541Z,14.83
2023-03-06T23:23:54.752Z,12.03
2023-03-06T23:26:25.204Z,11.68
2023-03-06T23:28:55.050Z,11.49
2023-03-06T23:31:25.587Z,11.86
2023-03-06T23:33:53.128Z,11.57
2023-03-06T23:36:20.717Z,11.40
2023-03-06T23:38:48.362Z,11.04
2023-03-06T23:41:18.571Z,11.94
2023-03-06T23:43:47.500Z,12.12
2023-03-06T23:46:16.857Z,12.43
2023-03-06T23:48:44.741Z,12.81
2023-03-06T23:51:15.245Z,12.30
2023-03-06T23:53:44.027Z,11.49
2023-03-06T23:56:12.312Z,12.58
2023-03-06T23:58:40.158Z,13.51
